Aviation Digital Data Service (ADDS)

Output produced by METARs form (0816 UTC 19 April 2019)
found at http://www.aviationweather.gov/metar/data/
 
METAR text: EIDW 190800Z 10007KT 3500 BR FEW015 SCT200 12/10 Q1028 BECMG 7000
Conditions at: EIDW (DUBLIN AIRPORT , IE) observed 0800 UTC 19 April 2019
Temperature: 12.0°C (54°F)
Dewpoint: 10.0°C (50°F) [RH = 88%]
Pressure (altimeter): 30.35 inches Hg (1028.0 mb)
Winds: from the E (100 degrees) at 8 MPH (7 knots; 3.6 m/s)
Visibility: 2.17 miles (3.49 km)
Ceiling: at least 12,000 feet AGL
Clouds: few clouds at 1500 feet AGL
scattered clouds at 20000 feet AGL
Weather: BR  (mist)

METAR text: EIDW 190730Z 10005KT 2000 BR FEW015 SCT200 11/09 Q1028 NOSIG
Conditions at: EIDW (DUBLIN AIRPORT , IE) observed 0730 UTC 19 April 2019
Temperature: 11.0°C (52°F)
Dewpoint: 9.0°C (48°F) [RH = 87%]
Pressure (altimeter): 30.35 inches Hg (1028.0 mb)
Winds: from the E (100 degrees) at 6 MPH (5 knots; 2.6 m/s)
Visibility: 1.24 miles (2.00 km)
Ceiling: at least 12,000 feet AGL
Clouds: few clouds at 1500 feet AGL
scattered clouds at 20000 feet AGL
Weather: BR  (mist)

METAR text: EIDW 190700Z 10005KT 1500 R16/1400U R28/1600U R10/2000N BR FEW015 SCT200 10/09 Q1028 NOSIG
Conditions at: EIDW (DUBLIN AIRPORT , IE) observed 0700 UTC 19 April 2019
Temperature: 10.0°C (50°F)
Dewpoint: 9.0°C (48°F) [RH = 93%]
Pressure (altimeter): 30.35 inches Hg (1028.0 mb)
Winds: from the E (100 degrees) at 6 MPH (5 knots; 2.6 m/s)
Visibility: 0.93 miles (1.50 km)
Ceiling: at least 12,000 feet AGL
Clouds: few clouds at 1500 feet AGL
scattered clouds at 20000 feet AGL
Weather: BR  (mist)

METAR text: EIDW 190630Z 10005KT 1500 R16/1300N R28/1300N R10/1800D BR FEW015 SCT200 08/08 Q1027 NOSIG
Conditions at: EIDW (DUBLIN AIRPORT , IE) observed 0630 UTC 19 April 2019
Temperature: 8.0°C (46°F)
Dewpoint: 8.0°C (46°F) [RH = 100%]
Pressure (altimeter): 30.32 inches Hg (1027.0 mb)
Winds: from the E (100 degrees) at 6 MPH (5 knots; 2.6 m/s)
Visibility: 0.93 miles (1.50 km)
Ceiling: at least 12,000 feet AGL
Clouds: few clouds at 1500 feet AGL
scattered clouds at 20000 feet AGL
Weather: BR  (mist)

METAR text: EIDW 190600Z 08005KT 1500 R16/1400N R28/1800D R10/1800N BR FEW015 SCT200 07/07 Q1027 NOSIG
Conditions at: EIDW (DUBLIN AIRPORT , IE) observed 0600 UTC 19 April 2019
Temperature: 7.0°C (45°F)
Dewpoint: 7.0°C (45°F) [RH = 100%]
Pressure (altimeter): 30.32 inches Hg (1027.0 mb)
Winds: from the E (80 degrees) at 6 MPH (5 knots; 2.6 m/s)
Visibility: 0.93 miles (1.50 km)
Ceiling: at least 12,000 feet AGL
Clouds: few clouds at 1500 feet AGL
scattered clouds at 20000 feet AGL
Weather: BR  (mist)

METAR text: EIDW 190530Z 08005KT 1500 BR FEW015 SCT200 05/05 Q1027 NOSIG
Conditions at: EIDW (DUBLIN AIRPORT , IE) observed 0530 UTC 19 April 2019
Temperature: 5.0°C (41°F)
Dewpoint: 5.0°C (41°F) [RH = 100%]
Pressure (altimeter): 30.32 inches Hg (1027.0 mb)
Winds: from the E (80 degrees) at 6 MPH (5 knots; 2.6 m/s)
Visibility: 0.93 miles (1.50 km)
Ceiling: at least 12,000 feet AGL
Clouds: few clouds at 1500 feet AGL
scattered clouds at 20000 feet AGL
Weather: BR  (mist)

METAR text: EIDW 190500Z 09004KT 2000 BR FEW015 SCT200 04/04 Q1027 NOSIG
Conditions at: EIDW (DUBLIN AIRPORT , IE) observed 0500 UTC 19 April 2019
Temperature: 4.0°C (39°F)
Dewpoint: 4.0°C (39°F) [RH = 100%]
Pressure (altimeter): 30.32 inches Hg (1027.0 mb)
Winds: from the E (90 degrees) at 5 MPH (4 knots; 2.1 m/s)
Visibility: 1.24 miles (2.00 km)
Ceiling: at least 12,000 feet AGL
Clouds: few clouds at 1500 feet AGL
scattered clouds at 20000 feet AGL
Weather: BR  (mist)

METAR text: EIDW 190430Z VRB02KT 2500 R16/0400V0600D R28/2000N R10/2000N BR FEW015 SCT120 06/06 Q1027 NOSIG
Conditions at: EIDW (DUBLIN AIRPORT , IE) observed 0430 UTC 19 April 2019
Temperature: 6.0°C (43°F)
Dewpoint: 6.0°C (43°F) [RH = 100%]
Pressure (altimeter): 30.32 inches Hg (1027.0 mb)
Winds: variable direction winds at 2 MPH (2 knots; 1.0 m/s)
Visibility: 1.55 miles (2.49 km)
Ceiling: at least 12,000 feet AGL
Clouds: few clouds at 1500 feet AGL
scattered clouds at 12000 feet AGL
Weather: BR  (mist)

METAR text: EIDW 190400Z 36001KT 3000 BR FEW015 SCT120 06/06 Q1027 NOSIG
Conditions at: EIDW (DUBLIN AIRPORT , IE) observed 0400 UTC 19 April 2019
Temperature: 6.0°C (43°F)
Dewpoint: 6.0°C (43°F) [RH = 100%]
Pressure (altimeter): 30.32 inches Hg (1027.0 mb)
Winds: from the N (360 degrees) at 1 MPH (1 knots; 0.5 m/s)
Visibility: 1.86 miles (2.99 km)
Ceiling: at least 12,000 feet AGL
Clouds: few clouds at 1500 feet AGL
scattered clouds at 12000 feet AGL
Weather: BR  (mist)

METAR text: EIDW 190330Z 36001KT 2500 R16/1800N R28/2000N R10/0700V1000U BR FEW015 SCT120 03/03 Q1027 NOSIG
Conditions at: EIDW (DUBLIN AIRPORT , IE) observed 0330 UTC 19 April 2019
Temperature: 3.0°C (37°F)
Dewpoint: 3.0°C (37°F) [RH = 100%]
Pressure (altimeter): 30.32 inches Hg (1027.0 mb)
Winds: from the N (360 degrees) at 1 MPH (1 knots; 0.5 m/s)
Visibility: 1.55 miles (2.49 km)
Ceiling: at least 12,000 feet AGL
Clouds: few clouds at 1500 feet AGL
scattered clouds at 12000 feet AGL
Weather: BR  (mist)

METAR text: EIDW 190300Z VRB02KT 2500 BR FEW015 SCT120 04/04 Q1026 NOSIG
Conditions at: EIDW (DUBLIN AIRPORT , IE) observed 0300 UTC 19 April 2019
Temperature: 4.0°C (39°F)
Dewpoint: 4.0°C (39°F) [RH = 100%]
Pressure (altimeter): 30.30 inches Hg (1026.0 mb)
Winds: variable direction winds at 2 MPH (2 knots; 1.0 m/s)
Visibility: 1.55 miles (2.49 km)
Ceiling: at least 12,000 feet AGL
Clouds: few clouds at 1500 feet AGL
scattered clouds at 12000 feet AGL
Weather: BR  (mist)

METAR text: EIDW 190230Z 02003KT 2500 BR FEW015 SCT120 05/04 Q1027 NOSIG
Conditions at: EIDW (DUBLIN AIRPORT , IE) observed 0230 UTC 19 April 2019
Temperature: 5.0°C (41°F)
Dewpoint: 4.0°C (39°F) [RH = 93%]
Pressure (altimeter): 30.32 inches Hg (1027.0 mb)
Winds: from the NNE (20 degrees) at 3 MPH (3 knots; 1.5 m/s)
Visibility: 1.55 miles (2.49 km)
Ceiling: at least 12,000 feet AGL
Clouds: few clouds at 1500 feet AGL
scattered clouds at 12000 feet AGL
Weather: BR  (mist)

METAR text: EIDW 190200Z 02003KT 3000 BR FEW015 SCT120 04/04 Q1027 NOSIG
Conditions at: EIDW (DUBLIN AIRPORT , IE) observed 0200 UTC 19 April 2019
Temperature: 4.0°C (39°F)
Dewpoint: 4.0°C (39°F) [RH = 100%]
Pressure (altimeter): 30.32 inches Hg (1027.0 mb)
Winds: from the NNE (20 degrees) at 3 MPH (3 knots; 1.5 m/s)
Visibility: 1.86 miles (2.99 km)
Ceiling: at least 12,000 feet AGL
Clouds: few clouds at 1500 feet AGL
scattered clouds at 12000 feet AGL
Weather: BR  (mist)

METAR text: EIDW 190130Z 08004KT 3000 BR FEW015 SCT120 05/05 Q1026 NOSIG
Conditions at: EIDW (DUBLIN AIRPORT , IE) observed 0130 UTC 19 April 2019
Temperature: 5.0°C (41°F)
Dewpoint: 5.0°C (41°F) [RH = 100%]
Pressure (altimeter): 30.30 inches Hg (1026.0 mb)
Winds: from the E (80 degrees) at 5 MPH (4 knots; 2.1 m/s)
Visibility: 1.86 miles (2.99 km)
Ceiling: at least 12,000 feet AGL
Clouds: few clouds at 1500 feet AGL
scattered clouds at 12000 feet AGL
Weather: BR  (mist)

METAR text: EIDW 190100Z VRB01KT 3000 BR FEW015 SCT120 05/05 Q1026 NOSIG
Conditions at: EIDW (DUBLIN AIRPORT , IE) observed 0100 UTC 19 April 2019
Temperature: 5.0°C (41°F)
Dewpoint: 5.0°C (41°F) [RH = 100%]
Pressure (altimeter): 30.30 inches Hg (1026.0 mb)
Winds: variable direction winds at 1 MPH (1 knots; 0.5 m/s)
Visibility: 1.86 miles (2.99 km)
Ceiling: at least 12,000 feet AGL
Clouds: few clouds at 1500 feet AGL
scattered clouds at 12000 feet AGL
Weather: BR  (mist)

METAR text: EIDW 190030Z VRB01KT 2500 BR FEW015 BKN250 05/05 Q1026 NOSIG
Conditions at: EIDW (DUBLIN AIRPORT , IE) observed 0030 UTC 19 April 2019
Temperature: 5.0°C (41°F)
Dewpoint: 5.0°C (41°F) [RH = 100%]
Pressure (altimeter): 30.30 inches Hg (1026.0 mb)
Winds: variable direction winds at 1 MPH (1 knots; 0.5 m/s)
Visibility: 1.55 miles (2.49 km)
Ceiling: 25000 feet AGL
Clouds: few clouds at 1500 feet AGL
broken clouds at 25000 feet AGL
Weather: BR  (mist)

METAR text: EIDW 190000Z VRB03KT 2500 BR FEW015 BKN250 05/05 Q1026 NOSIG
Conditions at: EIDW (DUBLIN AIRPORT , IE) observed 0000 UTC 19 April 2019
Temperature: 5.0°C (41°F)
Dewpoint: 5.0°C (41°F) [RH = 100%]
Pressure (altimeter): 30.30 inches Hg (1026.0 mb)
Winds: variable direction winds at 3 MPH (3 knots; 1.5 m/s)
Visibility: 1.55 miles (2.49 km)
Ceiling: 25000 feet AGL
Clouds: few clouds at 1500 feet AGL
broken clouds at 25000 feet AGL
Weather: BR  (mist)

METAR text: EIDW 182330Z VRB03KT 3000 BR FEW015 BKN250 06/06 Q1026 NOSIG
Conditions at: EIDW (DUBLIN AIRPORT , IE) observed 2330 UTC 18 April 2019
Temperature: 6.0°C (43°F)
Dewpoint: 6.0°C (43°F) [RH = 100%]
Pressure (altimeter): 30.30 inches Hg (1026.0 mb)
Winds: variable direction winds at 3 MPH (3 knots; 1.5 m/s)
Visibility: 1.86 miles (2.99 km)
Ceiling: 25000 feet AGL
Clouds: few clouds at 1500 feet AGL
broken clouds at 25000 feet AGL
Weather: BR  (mist)

METAR text: EIDW 182300Z VRB03KT 3000 BR FEW015 BKN250 05/05 Q1026 NOSIG
Conditions at: EIDW (DUBLIN AIRPORT , IE) observed 2300 UTC 18 April 2019
Temperature: 5.0°C (41°F)
Dewpoint: 5.0°C (41°F) [RH = 100%]
Pressure (altimeter): 30.30 inches Hg (1026.0 mb)
Winds: variable direction winds at 3 MPH (3 knots; 1.5 m/s)
Visibility: 1.86 miles (2.99 km)
Ceiling: 25000 feet AGL
Clouds: few clouds at 1500 feet AGL
broken clouds at 25000 feet AGL
Weather: BR  (mist)

METAR text: EIDW 182230Z 07003KT 4000 BR FEW015 BKN250 06/05 Q1026 NOSIG
Conditions at: EIDW (DUBLIN AIRPORT , IE) observed 2230 UTC 18 April 2019
Temperature: 6.0°C (43°F)
Dewpoint: 5.0°C (41°F) [RH = 93%]
Pressure (altimeter): 30.30 inches Hg (1026.0 mb)
Winds: from the ENE (70 degrees) at 3 MPH (3 knots; 1.5 m/s)
Visibility: 2.49 miles (4.01 km)
Ceiling: 25000 feet AGL
Clouds: few clouds at 1500 feet AGL
broken clouds at 25000 feet AGL
Weather: BR  (mist)

METAR text: EIDW 182200Z 08004KT 030V100 4000 BR FEW015 BKN250 07/06 Q1026 NOSIG
Conditions at: EIDW (DUBLIN AIRPORT , IE) observed 2200 UTC 18 April 2019
Temperature: 7.0°C (45°F)
Dewpoint: 6.0°C (43°F) [RH = 93%]
Pressure (altimeter): 30.30 inches Hg (1026.0 mb)
Winds: from the E (80 degrees) at 5 MPH (4 knots; 2.1 m/s)
Visibility: 2.49 miles (4.01 km)
Ceiling: 25000 feet AGL
Clouds: few clouds at 1500 feet AGL
broken clouds at 25000 feet AGL
Weather: BR  (mist)

METAR text: EIDW 182130Z 01005KT 4000 BR FEW015 BKN250 06/05 Q1026 NOSIG
Conditions at: EIDW (DUBLIN AIRPORT , IE) observed 2130 UTC 18 April 2019
Temperature: 6.0°C (43°F)
Dewpoint: 5.0°C (41°F) [RH = 93%]
Pressure (altimeter): 30.30 inches Hg (1026.0 mb)
Winds: from the N (10 degrees) at 6 MPH (5 knots; 2.6 m/s)
Visibility: 2.49 miles (4.01 km)
Ceiling: 25000 feet AGL
Clouds: few clouds at 1500 feet AGL
broken clouds at 25000 feet AGL
Weather: BR  (mist)

METAR text: EIDW 182100Z 36004KT 300V040 4000 BR FEW015 BKN250 07/05 Q1026 NOSIG
Conditions at: EIDW (DUBLIN AIRPORT , IE) observed 2100 UTC 18 April 2019
Temperature: 7.0°C (45°F)
Dewpoint: 5.0°C (41°F) [RH = 87%]
Pressure (altimeter): 30.30 inches Hg (1026.0 mb)
Winds: from the N (360 degrees) at 5 MPH (4 knots; 2.1 m/s)
Visibility: 2.49 miles (4.01 km)
Ceiling: 25000 feet AGL
Clouds: few clouds at 1500 feet AGL
broken clouds at 25000 feet AGL
Weather: BR  (mist)

METAR text: EIDW 182030Z VRB03KT 3300 BR FEW015 BKN250 07/06 Q1026 NOSIG
Conditions at: EIDW (DUBLIN AIRPORT , IE) observed 2030 UTC 18 April 2019
Temperature: 7.0°C (45°F)
Dewpoint: 6.0°C (43°F) [RH = 93%]
Pressure (altimeter): 30.30 inches Hg (1026.0 mb)
Winds: variable direction winds at 3 MPH (3 knots; 1.5 m/s)
Visibility: 2.05 miles (3.30 km)
Ceiling: 25000 feet AGL
Clouds: few clouds at 1500 feet AGL
broken clouds at 25000 feet AGL
Weather: BR  (mist)

METAR text: EIDW 182000Z 05004KT 340V080 3300 BR FEW015 BKN250 08/06 Q1025 NOSIG
Conditions at: EIDW (DUBLIN AIRPORT , IE) observed 2000 UTC 18 April 2019
Temperature: 8.0°C (46°F)
Dewpoint: 6.0°C (43°F) [RH = 87%]
Pressure (altimeter): 30.27 inches Hg (1025.0 mb)
Winds: from the NE (50 degrees) at 5 MPH (4 knots; 2.1 m/s)
Visibility: 2.05 miles (3.30 km)
Ceiling: 25000 feet AGL
Clouds: few clouds at 1500 feet AGL
broken clouds at 25000 feet AGL
Weather: BR  (mist)

METAR text: EIDW 181930Z 07006KT 040V110 3400 BR FEW015 BKN250 10/08 Q1025 NOSIG
Conditions at: EIDW (DUBLIN AIRPORT , IE) observed 1930 UTC 18 April 2019
Temperature: 10.0°C (50°F)
Dewpoint: 8.0°C (46°F) [RH = 87%]
Pressure (altimeter): 30.27 inches Hg (1025.0 mb)
Winds: from the ENE (70 degrees) at 7 MPH (6 knots; 3.1 m/s)
Visibility: 2.11 miles (3.40 km)
Ceiling: 25000 feet AGL
Clouds: few clouds at 1500 feet AGL
broken clouds at 25000 feet AGL
Weather: BR  (mist)

METAR text: EIDW 181900Z 08005KT 050V110 3500 BR FEW015 BKN250 11/08 Q1025 NOSIG
Conditions at: EIDW (DUBLIN AIRPORT , IE) observed 1900 UTC 18 April 2019
Temperature: 11.0°C (52°F)
Dewpoint: 8.0°C (46°F) [RH = 82%]
Pressure (altimeter): 30.27 inches Hg (1025.0 mb)
Winds: from the E (80 degrees) at 6 MPH (5 knots; 2.6 m/s)
Visibility: 2.17 miles (3.49 km)
Ceiling: 25000 feet AGL
Clouds: few clouds at 1500 feet AGL
broken clouds at 25000 feet AGL
Weather: BR  (mist)

METAR text: EIDW 181830Z 08006KT 3400 BR FEW015 BKN250 12/09 Q1025 NOSIG
Conditions at: EIDW (DUBLIN AIRPORT , IE) observed 1830 UTC 18 April 2019
Temperature: 12.0°C (54°F)
Dewpoint: 9.0°C (48°F) [RH = 82%]
Pressure (altimeter): 30.27 inches Hg (1025.0 mb)
Winds: from the E (80 degrees) at 7 MPH (6 knots; 3.1 m/s)
Visibility: 2.11 miles (3.40 km)
Ceiling: 25000 feet AGL
Clouds: few clouds at 1500 feet AGL
broken clouds at 25000 feet AGL
Weather: BR  (mist)

METAR text: EIDW 181800Z 08006KT 3400 BR FEW015 BKN250 13/09 Q1025 NOSIG
Conditions at: EIDW (DUBLIN AIRPORT , IE) observed 1800 UTC 18 April 2019
Temperature: 13.0°C (55°F)
Dewpoint: 9.0°C (48°F) [RH = 77%]
Pressure (altimeter): 30.27 inches Hg (1025.0 mb)
Winds: from the E (80 degrees) at 7 MPH (6 knots; 3.1 m/s)
Visibility: 2.11 miles (3.40 km)
Ceiling: 25000 feet AGL
Clouds: few clouds at 1500 feet AGL
broken clouds at 25000 feet AGL
Weather: BR  (mist)

METAR text: EIDW 181730Z 10006KT 4200 BR FEW015 BKN250 13/09 Q1024 NOSIG
Conditions at: EIDW (DUBLIN AIRPORT , IE) observed 1730 UTC 18 April 2019
Temperature: 13.0°C (55°F)
Dewpoint: 9.0°C (48°F) [RH = 77%]
Pressure (altimeter): 30.24 inches Hg (1024.0 mb)
Winds: from the E (100 degrees) at 7 MPH (6 knots; 3.1 m/s)
Visibility: 2.61 miles (4.20 km)
Ceiling: 25000 feet AGL
Clouds: few clouds at 1500 feet AGL
broken clouds at 25000 feet AGL
Weather: BR  (mist)

METAR text: EIDW 181700Z 07007KT 030V100 4200 BR FEW015 BKN250 14/10 Q1024 NOSIG
Conditions at: EIDW (DUBLIN AIRPORT , IE) observed 1700 UTC 18 April 2019
Temperature: 14.0°C (57°F)
Dewpoint: 10.0°C (50°F) [RH = 77%]
Pressure (altimeter): 30.24 inches Hg (1024.0 mb)
Winds: from the ENE (70 degrees) at 8 MPH (7 knots; 3.6 m/s)
Visibility: 2.61 miles (4.20 km)
Ceiling: 25000 feet AGL
Clouds: few clouds at 1500 feet AGL
broken clouds at 25000 feet AGL
Weather: BR  (mist)

METAR text: EIDW 181630Z 09007KT 4500 HZ FEW015 BKN250 14/09 Q1024 NOSIG
Conditions at: EIDW (DUBLIN AIRPORT , IE) observed 1630 UTC 18 April 2019
Temperature: 14.0°C (57°F)
Dewpoint: 9.0°C (48°F) [RH = 72%]
Pressure (altimeter): 30.24 inches Hg (1024.0 mb)
Winds: from the E (90 degrees) at 8 MPH (7 knots; 3.6 m/s)
Visibility: 2.80 miles (4.51 km)
Ceiling: 25000 feet AGL
Clouds: few clouds at 1500 feet AGL
broken clouds at 25000 feet AGL
Weather: HZ  (haze)

METAR text: EIDW 181600Z 09008KT 4500 HZ FEW015 BKN250 15/09 Q1024 NOSIG
Conditions at: EIDW (DUBLIN AIRPORT , IE) observed 1600 UTC 18 April 2019
Temperature: 15.0°C (59°F)
Dewpoint: 9.0°C (48°F) [RH = 67%]
Pressure (altimeter): 30.24 inches Hg (1024.0 mb)
Winds: from the E (90 degrees) at 9 MPH (8 knots; 4.1 m/s)
Visibility: 2.80 miles (4.51 km)
Ceiling: 25000 feet AGL
Clouds: few clouds at 1500 feet AGL
broken clouds at 25000 feet AGL
Weather: HZ  (haze)

METAR text: EIDW 181530Z 10008KT 070V130 4500 HZ FEW015 BKN250 15/09 Q1024 NOSIG
Conditions at: EIDW (DUBLIN AIRPORT , IE) observed 1530 UTC 18 April 2019
Temperature: 15.0°C (59°F)
Dewpoint: 9.0°C (48°F) [RH = 67%]
Pressure (altimeter): 30.24 inches Hg (1024.0 mb)
Winds: from the E (100 degrees) at 9 MPH (8 knots; 4.1 m/s)
Visibility: 2.80 miles (4.51 km)
Ceiling: 25000 feet AGL
Clouds: few clouds at 1500 feet AGL
broken clouds at 25000 feet AGL
Weather: HZ  (haze)

METAR text: EIDW 181500Z 09008KT 050V120 4000 BR FEW015 BKN250 14/09 Q1024 NOSIG
Conditions at: EIDW (DUBLIN AIRPORT , IE) observed 1500 UTC 18 April 2019
Temperature: 14.0°C (57°F)
Dewpoint: 9.0°C (48°F) [RH = 72%]
Pressure (altimeter): 30.24 inches Hg (1024.0 mb)
Winds: from the E (90 degrees) at 9 MPH (8 knots; 4.1 m/s)
Visibility: 2.49 miles (4.01 km)
Ceiling: 25000 feet AGL
Clouds: few clouds at 1500 feet AGL
broken clouds at 25000 feet AGL
Weather: BR  (mist)

METAR text: EIDW 181430Z 09009KT 040V100 4000 BR FEW015 BKN250 13/09 Q1024 NOSIG
Conditions at: EIDW (DUBLIN AIRPORT , IE) observed 1430 UTC 18 April 2019
Temperature: 13.0°C (55°F)
Dewpoint: 9.0°C (48°F) [RH = 77%]
Pressure (altimeter): 30.24 inches Hg (1024.0 mb)
Winds: from the E (90 degrees) at 10 MPH (9 knots; 4.6 m/s)
Visibility: 2.49 miles (4.01 km)
Ceiling: 25000 feet AGL
Clouds: few clouds at 1500 feet AGL
broken clouds at 25000 feet AGL
Weather: BR  (mist)

METAR text: EIDW 181400Z 08008KT 3800 BR FEW015 BKN250 14/09 Q1024 BECMG 6000
Conditions at: EIDW (DUBLIN AIRPORT , IE) observed 1400 UTC 18 April 2019
Temperature: 14.0°C (57°F)
Dewpoint: 9.0°C (48°F) [RH = 72%]
Pressure (altimeter): 30.24 inches Hg (1024.0 mb)
Winds: from the E (80 degrees) at 9 MPH (8 knots; 4.1 m/s)
Visibility: 2.36 miles (3.80 km)
Ceiling: 25000 feet AGL
Clouds: few clouds at 1500 feet AGL
broken clouds at 25000 feet AGL
Weather: BR  (mist)

METAR text: EIDW 181330Z 08008KT 050V110 4000 BR FEW012 BKN250 14/10 Q1024 BECMG 6000
Conditions at: EIDW (DUBLIN AIRPORT , IE) observed 1330 UTC 18 April 2019
Temperature: 14.0°C (57°F)
Dewpoint: 10.0°C (50°F) [RH = 77%]
Pressure (altimeter): 30.24 inches Hg (1024.0 mb)
Winds: from the E (80 degrees) at 9 MPH (8 knots; 4.1 m/s)
Visibility: 2.49 miles (4.01 km)
Ceiling: 25000 feet AGL
Clouds: few clouds at 1200 feet AGL
broken clouds at 25000 feet AGL
Weather: BR  (mist)

METAR text: EIDW 181300Z 07007KT 020V100 4200 BR FEW012 BKN250 14/10 Q1024 BECMG 6000
Conditions at: EIDW (DUBLIN AIRPORT , IE) observed 1300 UTC 18 April 2019
Temperature: 14.0°C (57°F)
Dewpoint: 10.0°C (50°F) [RH = 77%]
Pressure (altimeter): 30.24 inches Hg (1024.0 mb)
Winds: from the ENE (70 degrees) at 8 MPH (7 knots; 3.6 m/s)
Visibility: 2.61 miles (4.20 km)
Ceiling: 25000 feet AGL
Clouds: few clouds at 1200 feet AGL
broken clouds at 25000 feet AGL
Weather: BR  (mist)

METAR text: EIDW 181230Z 08007KT 030V110 4000 BR FEW012 BKN230 14/10 Q1024 BECMG 6000
Conditions at: EIDW (DUBLIN AIRPORT , IE) observed 1230 UTC 18 April 2019
Temperature: 14.0°C (57°F)
Dewpoint: 10.0°C (50°F) [RH = 77%]
Pressure (altimeter): 30.24 inches Hg (1024.0 mb)
Winds: from the E (80 degrees) at 8 MPH (7 knots; 3.6 m/s)
Visibility: 2.49 miles (4.01 km)
Ceiling: 23000 feet AGL
Clouds: few clouds at 1200 feet AGL
broken clouds at 23000 feet AGL
Weather: BR  (mist)

METAR text: EIDW 181200Z 07007KT 030V120 4000 BR FEW010 SCT045 BKN230 15/09 Q1024 BECMG 6000
Conditions at: EIDW (DUBLIN AIRPORT , IE) observed 1200 UTC 18 April 2019
Temperature: 15.0°C (59°F)
Dewpoint: 9.0°C (48°F) [RH = 67%]
Pressure (altimeter): 30.24 inches Hg (1024.0 mb)
Winds: from the ENE (70 degrees) at 8 MPH (7 knots; 3.6 m/s)
Visibility: 2.49 miles (4.01 km)
Ceiling: 23000 feet AGL
Clouds: few clouds at 1000 feet AGL
scattered clouds at 4500 feet AGL
broken clouds at 23000 feet AGL
Weather: BR  (mist)

METAR text: EIDW 181130Z 09007KT 060V120 4000 BR FEW010 SCT045 BKN230 15/09 Q1024 BECMG 6000
Conditions at: EIDW (DUBLIN AIRPORT , IE) observed 1130 UTC 18 April 2019
Temperature: 15.0°C (59°F)
Dewpoint: 9.0°C (48°F) [RH = 67%]
Pressure (altimeter): 30.24 inches Hg (1024.0 mb)
Winds: from the E (90 degrees) at 8 MPH (7 knots; 3.6 m/s)
Visibility: 2.49 miles (4.01 km)
Ceiling: 23000 feet AGL
Clouds: few clouds at 1000 feet AGL
scattered clouds at 4500 feet AGL
broken clouds at 23000 feet AGL
Weather: BR  (mist)

METAR text: EIDW 181100Z 08005KT 350V130 4000 BR FEW008 SCT045 14/10 Q1023 BECMG 6000
Conditions at: EIDW (DUBLIN AIRPORT , IE) observed 1100 UTC 18 April 2019
Temperature: 14.0°C (57°F)
Dewpoint: 10.0°C (50°F) [RH = 77%]
Pressure (altimeter): 30.21 inches Hg (1023.0 mb)
Winds: from the E (80 degrees) at 6 MPH (5 knots; 2.6 m/s)
Visibility: 2.49 miles (4.01 km)
Ceiling: at least 12,000 feet AGL
Clouds: few clouds at 800 feet AGL
scattered clouds at 4500 feet AGL
Weather: BR  (mist)

METAR text: EIDW 181030Z 09006KT 060V120 3500 BR FEW007 SCT200 14/09 Q1024 BECMG 6000
Conditions at: EIDW (DUBLIN AIRPORT , IE) observed 1030 UTC 18 April 2019
Temperature: 14.0°C (57°F)
Dewpoint: 9.0°C (48°F) [RH = 72%]
Pressure (altimeter): 30.24 inches Hg (1024.0 mb)
Winds: from the E (90 degrees) at 7 MPH (6 knots; 3.1 m/s)
Visibility: 2.17 miles (3.49 km)
Ceiling: at least 12,000 feet AGL
Clouds: few clouds at 700 feet AGL
scattered clouds at 20000 feet AGL
Weather: BR  (mist)

METAR text: EIDW 181000Z 08005KT 050V110 3500 BR FEW007 SCT200 13/10 Q1024 BECMG 6000
Conditions at: EIDW (DUBLIN AIRPORT , IE) observed 1000 UTC 18 April 2019
Temperature: 13.0°C (55°F)
Dewpoint: 10.0°C (50°F) [RH = 82%]
Pressure (altimeter): 30.24 inches Hg (1024.0 mb)
Winds: from the E (80 degrees) at 6 MPH (5 knots; 2.6 m/s)
Visibility: 2.17 miles (3.49 km)
Ceiling: at least 12,000 feet AGL
Clouds: few clouds at 700 feet AGL
scattered clouds at 20000 feet AGL
Weather: BR  (mist)

METAR text: EIDW 180930Z 06005KT 020V140 3000 BR FEW007 SCT200 13/10 Q1023 BECMG 6000
Conditions at: EIDW (DUBLIN AIRPORT , IE) observed 0930 UTC 18 April 2019
Temperature: 13.0°C (55°F)
Dewpoint: 10.0°C (50°F) [RH = 82%]
Pressure (altimeter): 30.21 inches Hg (1023.0 mb)
Winds: from the ENE (60 degrees) at 6 MPH (5 knots; 2.6 m/s)
Visibility: 1.86 miles (2.99 km)
Ceiling: at least 12,000 feet AGL
Clouds: few clouds at 700 feet AGL
scattered clouds at 20000 feet AGL
Weather: BR  (mist)

METAR text: EIDW 180900Z 04006KT 340V100 2500 BR FEW007 SCT200 11/10 Q1023 BECMG 6000
Conditions at: EIDW (DUBLIN AIRPORT , IE) observed 0900 UTC 18 April 2019
Temperature: 11.0°C (52°F)
Dewpoint: 10.0°C (50°F) [RH = 94%]
Pressure (altimeter): 30.21 inches Hg (1023.0 mb)
Winds: from the NE (40 degrees) at 7 MPH (6 knots; 3.1 m/s)
Visibility: 1.55 miles (2.49 km)
Ceiling: at least 12,000 feet AGL
Clouds: few clouds at 700 feet AGL
scattered clouds at 20000 feet AGL
Weather: BR  (mist)

METAR text: EIDW 180830Z 04007KT 010V070 1800 BR FEW006 BKN250 10/10 Q1023 BECMG 3000
Conditions at: EIDW (DUBLIN AIRPORT , IE) observed 0830 UTC 18 April 2019
Temperature: 10.0°C (50°F)
Dewpoint: 10.0°C (50°F) [RH = 100%]
Pressure (altimeter): 30.21 inches Hg (1023.0 mb)
Winds: from the NE (40 degrees) at 8 MPH (7 knots; 3.6 m/s)
Visibility: 1.12 miles (1.80 km)
Ceiling: 25000 feet AGL
Clouds: few clouds at 600 feet AGL
broken clouds at 25000 feet AGL
Weather: BR  (mist)

METAR text: EIDW 180800Z 05008KT 010V090 1300 R16/1300N R28/2000N R10/1500N BR FEW005 BKN250 10/09 Q1023 BECMG 3000
Conditions at: EIDW (DUBLIN AIRPORT , IE) observed 0800 UTC 18 April 2019
Temperature: 10.0°C (50°F)
Dewpoint: 9.0°C (48°F) [RH = 93%]
Pressure (altimeter): 30.21 inches Hg (1023.0 mb)
Winds: from the NE (50 degrees) at 9 MPH (8 knots; 4.1 m/s)
Visibility: 0.81 miles (1.30 km)
Ceiling: 25000 feet AGL
Clouds: few clouds at 500 feet AGL
broken clouds at 25000 feet AGL
Weather: BR  (mist)

METAR text: EIDW 180730Z 05007KT 1200 R16/1200N R28/2000U R10/1300N BR FEW005 BKN250 09/08 Q1023 BECMG 3000
Conditions at: EIDW (DUBLIN AIRPORT , IE) observed 0730 UTC 18 April 2019
Temperature: 9.0°C (48°F)
Dewpoint: 8.0°C (46°F) [RH = 93%]
Pressure (altimeter): 30.21 inches Hg (1023.0 mb)
Winds: from the NE (50 degrees) at 8 MPH (7 knots; 3.6 m/s)
Visibility: 0.75 miles (1.21 km)
Ceiling: 25000 feet AGL
Clouds: few clouds at 500 feet AGL
broken clouds at 25000 feet AGL
Weather: BR  (mist)

METAR text: EIDW 180700Z 02006KT 330V060 1200 R16/1200N R28/2000N R10/1400N BR FEW005 BKN250 08/08 Q1022 BECMG 3000
Conditions at: EIDW (DUBLIN AIRPORT , IE) observed 0700 UTC 18 April 2019
Temperature: 8.0°C (46°F)
Dewpoint: 8.0°C (46°F) [RH = 100%]
Pressure (altimeter): 30.18 inches Hg (1022.0 mb)
Winds: from the NNE (20 degrees) at 7 MPH (6 knots; 3.1 m/s)
Visibility: 0.75 miles (1.21 km)
Ceiling: 25000 feet AGL
Clouds: few clouds at 500 feet AGL
broken clouds at 25000 feet AGL
Weather: BR  (mist)

METAR text: EIDW 180630Z 03006KT 330V060 1100 R16/1200N R28/2000U R10/1500N BR FEW005 BKN250 07/07 Q1022
Conditions at: EIDW (DUBLIN AIRPORT , IE) observed 0630 UTC 18 April 2019
Temperature: 7.0°C (45°F)
Dewpoint: 7.0°C (45°F) [RH = 100%]
Pressure (altimeter): 30.18 inches Hg (1022.0 mb)
Winds: from the NNE (30 degrees) at 7 MPH (6 knots; 3.1 m/s)
Visibility: 0.68 miles (1.09 km)
Ceiling: 25000 feet AGL
Clouds: few clouds at 500 feet AGL
broken clouds at 25000 feet AGL
Weather: BR  (mist)

METAR text: EIDW 180600Z 05006KT 010V080 2000 R16/1200V1500D R28/2000D R10/1800D BR FEW005 BKN250 06/06 Q1022
Conditions at: EIDW (DUBLIN AIRPORT , IE) observed 0600 UTC 18 April 2019
Temperature: 6.0°C (43°F)
Dewpoint: 6.0°C (43°F) [RH = 100%]
Pressure (altimeter): 30.18 inches Hg (1022.0 mb)
Winds: from the NE (50 degrees) at 7 MPH (6 knots; 3.1 m/s)
Visibility: 1.24 miles (2.00 km)
Ceiling: 25000 feet AGL
Clouds: few clouds at 500 feet AGL
broken clouds at 25000 feet AGL
Weather: BR  (mist)

METAR text: EIDW 180530Z 02005KT 320V050 2000 BR FEW005 BKN250 06/06 Q1022
Conditions at: EIDW (DUBLIN AIRPORT , IE) observed 0530 UTC 18 April 2019
Temperature: 6.0°C (43°F)
Dewpoint: 6.0°C (43°F) [RH = 100%]
Pressure (altimeter): 30.18 inches Hg (1022.0 mb)
Winds: from the NNE (20 degrees) at 6 MPH (5 knots; 2.6 m/s)
Visibility: 1.24 miles (2.00 km)
Ceiling: 25000 feet AGL
Clouds: few clouds at 500 feet AGL
broken clouds at 25000 feet AGL
Weather: BR  (mist)

METAR text: EIDW 180500Z 07005KT 5000 BR FEW010 BKN250 08/07 Q1022
Conditions at: EIDW (DUBLIN AIRPORT , IE) observed 0500 UTC 18 April 2019
Temperature: 8.0°C (46°F)
Dewpoint: 7.0°C (45°F) [RH = 93%]
Pressure (altimeter): 30.18 inches Hg (1022.0 mb)
Winds: from the ENE (70 degrees) at 6 MPH (5 knots; 2.6 m/s)
Visibility: 3 miles ( 5 km)
Ceiling: 25000 feet AGL
Clouds: few clouds at 1000 feet AGL
broken clouds at 25000 feet AGL
Weather: BR  (mist)

METAR text: EIDW 180430Z 01004KT 330V060 6000 FEW010 BKN160 BKN250 06/06 Q1021
Conditions at: EIDW (DUBLIN AIRPORT , IE) observed 0430 UTC 18 April 2019
Temperature: 6.0°C (43°F)
Dewpoint: 6.0°C (43°F) [RH = 100%]
Pressure (altimeter): 30.15 inches Hg (1021.0 mb)
Winds: from the N (10 degrees) at 5 MPH (4 knots; 2.1 m/s)
Visibility: 4 miles ( 6 km)
Ceiling: 16000 feet AGL
Clouds: few clouds at 1000 feet AGL
broken clouds at 16000 feet AGL
broken clouds at 25000 feet AGL
Weather: no significant weather observed at this time

METAR text: EIDW 180400Z 06005KT 6000 FEW010 SCT160 BKN250 07/06 Q1021
Conditions at: EIDW (DUBLIN AIRPORT , IE) observed 0400 UTC 18 April 2019
Temperature: 7.0°C (45°F)
Dewpoint: 6.0°C (43°F) [RH = 93%]
Pressure (altimeter): 30.15 inches Hg (1021.0 mb)
Winds: from the ENE (60 degrees) at 6 MPH (5 knots; 2.6 m/s)
Visibility: 4 miles ( 6 km)
Ceiling: 25000 feet AGL
Clouds: few clouds at 1000 feet AGL
scattered clouds at 16000 feet AGL
broken clouds at 25000 feet AGL
Weather: no significant weather observed at this time

METAR text: EIDW 180342Z 07006KT 8000 FEW010 SCT160 BKN250 06/06 Q1021
Conditions at: EIDW (DUBLIN AIRPORT , IE) observed 0342 UTC 18 April 2019
Temperature: 6.0°C (43°F)
Dewpoint: 6.0°C (43°F) [RH = 100%]
Pressure (altimeter): 30.15 inches Hg (1021.0 mb)
Winds: from the ENE (70 degrees) at 7 MPH (6 knots; 3.1 m/s)
Visibility: 5 miles ( 8 km)
Ceiling: 25000 feet AGL
Clouds: few clouds at 1000 feet AGL
scattered clouds at 16000 feet AGL
broken clouds at 25000 feet AGL
Weather: no significant weather observed at this time

METAR text: EIDW 180330Z 07006KT 9999 FEW010 SCT160 BKN250 06/06 Q1021
Conditions at: EIDW (DUBLIN AIRPORT , IE) observed 0330 UTC 18 April 2019
Temperature: 6.0°C (43°F)
Dewpoint: 6.0°C (43°F) [RH = 100%]
Pressure (altimeter): 30.15 inches Hg (1021.0 mb)
Winds: from the ENE (70 degrees) at 7 MPH (6 knots; 3.1 m/s)
Visibility: 6 or more miles (10+ km)
Ceiling: 25000 feet AGL
Clouds: few clouds at 1000 feet AGL
scattered clouds at 16000 feet AGL
broken clouds at 25000 feet AGL
Weather: no significant weather observed at this time

METAR text: EIDW 180300Z VRB02KT 8000 FEW010 SCT160 BKN250 04/04 Q1021 NOSIG
Conditions at: EIDW (DUBLIN AIRPORT , IE) observed 0300 UTC 18 April 2019
Temperature: 4.0°C (39°F)
Dewpoint: 4.0°C (39°F) [RH = 100%]
Pressure (altimeter): 30.15 inches Hg (1021.0 mb)
Winds: variable direction winds at 2 MPH (2 knots; 1.0 m/s)
Visibility: 5 miles ( 8 km)
Ceiling: 25000 feet AGL
Clouds: few clouds at 1000 feet AGL
scattered clouds at 16000 feet AGL
broken clouds at 25000 feet AGL
Weather: no significant weather observed at this time

METAR text: EIDW 180230Z 05004KT 8000 FEW010 SCT160 BKN250 04/04 Q1021 NOSIG
Conditions at: EIDW (DUBLIN AIRPORT , IE) observed 0230 UTC 18 April 2019
Temperature: 4.0°C (39°F)
Dewpoint: 4.0°C (39°F) [RH = 100%]
Pressure (altimeter): 30.15 inches Hg (1021.0 mb)
Winds: from the NE (50 degrees) at 5 MPH (4 knots; 2.1 m/s)
Visibility: 5 miles ( 8 km)
Ceiling: 25000 feet AGL
Clouds: few clouds at 1000 feet AGL
scattered clouds at 16000 feet AGL
broken clouds at 25000 feet AGL
Weather: no significant weather observed at this time

METAR text: EIDW 180200Z 35002KT 8000 FEW010 BKN160 BKN250 04/04 Q1021 NOSIG
Conditions at: EIDW (DUBLIN AIRPORT , IE) observed 0200 UTC 18 April 2019
Temperature: 4.0°C (39°F)
Dewpoint: 4.0°C (39°F) [RH = 100%]
Pressure (altimeter): 30.15 inches Hg (1021.0 mb)
Winds: from the N (350 degrees) at 2 MPH (2 knots; 1.0 m/s)
Visibility: 5 miles ( 8 km)
Ceiling: 16000 feet AGL
Clouds: few clouds at 1000 feet AGL
broken clouds at 16000 feet AGL
broken clouds at 25000 feet AGL
Weather: no significant weather observed at this time

METAR text: EIDW 180130Z VRB02KT 9000 FEW010 BKN160 BKN250 04/04 Q1021 NOSIG
Conditions at: EIDW (DUBLIN AIRPORT , IE) observed 0130 UTC 18 April 2019
Temperature: 4.0°C (39°F)
Dewpoint: 4.0°C (39°F) [RH = 100%]
Pressure (altimeter): 30.15 inches Hg (1021.0 mb)
Winds: variable direction winds at 2 MPH (2 knots; 1.0 m/s)
Visibility: 6 miles ( 9 km)
Ceiling: 16000 feet AGL
Clouds: few clouds at 1000 feet AGL
broken clouds at 16000 feet AGL
broken clouds at 25000 feet AGL
Weather: no significant weather observed at this time

METAR text: EIDW 180100Z 02003KT 8000 FEW008 SCT150 BKN250 04/04 Q1021 NOSIG
Conditions at: EIDW (DUBLIN AIRPORT , IE) observed 0100 UTC 18 April 2019
Temperature: 4.0°C (39°F)
Dewpoint: 4.0°C (39°F) [RH = 100%]
Pressure (altimeter): 30.15 inches Hg (1021.0 mb)
Winds: from the NNE (20 degrees) at 3 MPH (3 knots; 1.5 m/s)
Visibility: 5 miles ( 8 km)
Ceiling: 25000 feet AGL
Clouds: few clouds at 800 feet AGL
scattered clouds at 15000 feet AGL
broken clouds at 25000 feet AGL
Weather: no significant weather observed at this time

METAR text: EIDW 180030Z VRB03KT 8000 FEW008 SCT150 BKN250 05/04 Q1021 NOSIG
Conditions at: EIDW (DUBLIN AIRPORT , IE) observed 0030 UTC 18 April 2019
Temperature: 5.0°C (41°F)
Dewpoint: 4.0°C (39°F) [RH = 93%]
Pressure (altimeter): 30.15 inches Hg (1021.0 mb)
Winds: variable direction winds at 3 MPH (3 knots; 1.5 m/s)
Visibility: 5 miles ( 8 km)
Ceiling: 25000 feet AGL
Clouds: few clouds at 800 feet AGL
scattered clouds at 15000 feet AGL
broken clouds at 25000 feet AGL
Weather: no significant weather observed at this time

METAR text: EIDW 180000Z VRB03KT 6000 FEW008 SCT150 BKN250 05/05 Q1021 NOSIG
Conditions at: EIDW (DUBLIN AIRPORT , IE) observed 0000 UTC 18 April 2019
Temperature: 5.0°C (41°F)
Dewpoint: 5.0°C (41°F) [RH = 100%]
Pressure (altimeter): 30.15 inches Hg (1021.0 mb)
Winds: variable direction winds at 3 MPH (3 knots; 1.5 m/s)
Visibility: 4 miles ( 6 km)
Ceiling: 25000 feet AGL
Clouds: few clouds at 800 feet AGL
scattered clouds at 15000 feet AGL
broken clouds at 25000 feet AGL
Weather: no significant weather observed at this time

METAR text: EIDW 172330Z VRB03KT 6000 FEW008 BKN250 05/05 Q1021 NOSIG
Conditions at: EIDW (DUBLIN AIRPORT , IE) observed 2330 UTC 17 April 2019
Temperature: 5.0°C (41°F)
Dewpoint: 5.0°C (41°F) [RH = 100%]
Pressure (altimeter): 30.15 inches Hg (1021.0 mb)
Winds: variable direction winds at 3 MPH (3 knots; 1.5 m/s)
Visibility: 4 miles ( 6 km)
Ceiling: 25000 feet AGL
Clouds: few clouds at 800 feet AGL
broken clouds at 25000 feet AGL
Weather: no significant weather observed at this time

METAR text: EIDW 172300Z VRB03KT 5000 BR FEW008 BKN250 06/04 Q1021 NOSIG
Conditions at: EIDW (DUBLIN AIRPORT , IE) observed 2300 UTC 17 April 2019
Temperature: 6.0°C (43°F)
Dewpoint: 4.0°C (39°F) [RH = 87%]
Pressure (altimeter): 30.15 inches Hg (1021.0 mb)
Winds: variable direction winds at 3 MPH (3 knots; 1.5 m/s)
Visibility: 3 miles ( 5 km)
Ceiling: 25000 feet AGL
Clouds: few clouds at 800 feet AGL
broken clouds at 25000 feet AGL
Weather: BR  (mist)

METAR text: EIDW 172230Z VRB02KT 5000 BR FEW008 SCT250 07/06 Q1021 NOSIG
Conditions at: EIDW (DUBLIN AIRPORT , IE) observed 2230 UTC 17 April 2019
Temperature: 7.0°C (45°F)
Dewpoint: 6.0°C (43°F) [RH = 93%]
Pressure (altimeter): 30.15 inches Hg (1021.0 mb)
Winds: variable direction winds at 2 MPH (2 knots; 1.0 m/s)
Visibility: 3 miles ( 5 km)
Ceiling: at least 12,000 feet AGL
Clouds: few clouds at 800 feet AGL
scattered clouds at 25000 feet AGL
Weather: BR  (mist)

METAR text: EIDW 172200Z VRB03KT 4500 BR FEW008 BKN220 07/06 Q1021 NOSIG
Conditions at: EIDW (DUBLIN AIRPORT , IE) observed 2200 UTC 17 April 2019
Temperature: 7.0°C (45°F)
Dewpoint: 6.0°C (43°F) [RH = 93%]
Pressure (altimeter): 30.15 inches Hg (1021.0 mb)
Winds: variable direction winds at 3 MPH (3 knots; 1.5 m/s)
Visibility: 2.80 miles (4.51 km)
Ceiling: 22000 feet AGL
Clouds: few clouds at 800 feet AGL
broken clouds at 22000 feet AGL
Weather: BR  (mist)

METAR text: EIDW 172130Z 02004KT 350V100 5000 BR FEW010 BKN220 06/06 Q1021 NOSIG
Conditions at: EIDW (DUBLIN AIRPORT , IE) observed 2130 UTC 17 April 2019
Temperature: 6.0°C (43°F)
Dewpoint: 6.0°C (43°F) [RH = 100%]
Pressure (altimeter): 30.15 inches Hg (1021.0 mb)
Winds: from the NNE (20 degrees) at 5 MPH (4 knots; 2.1 m/s)
Visibility: 3 miles ( 5 km)
Ceiling: 22000 feet AGL
Clouds: few clouds at 1000 feet AGL
broken clouds at 22000 feet AGL
Weather: BR  (mist)

METAR text: EIDW 172100Z 04005KT 5000 BR FEW010 BKN220 07/06 Q1021 NOSIG
Conditions at: EIDW (DUBLIN AIRPORT , IE) observed 2100 UTC 17 April 2019
Temperature: 7.0°C (45°F)
Dewpoint: 6.0°C (43°F) [RH = 93%]
Pressure (altimeter): 30.15 inches Hg (1021.0 mb)
Winds: from the NE (40 degrees) at 6 MPH (5 knots; 2.6 m/s)
Visibility: 3 miles ( 5 km)
Ceiling: 22000 feet AGL
Clouds: few clouds at 1000 feet AGL
broken clouds at 22000 feet AGL
Weather: BR  (mist)

METAR text: EIDW 172030Z 05006KT 5000 BR FEW014 BKN200 07/06 Q1021 NOSIG
Conditions at: EIDW (DUBLIN AIRPORT , IE) observed 2030 UTC 17 April 2019
Temperature: 7.0°C (45°F)
Dewpoint: 6.0°C (43°F) [RH = 93%]
Pressure (altimeter): 30.15 inches Hg (1021.0 mb)
Winds: from the NE (50 degrees) at 7 MPH (6 knots; 3.1 m/s)
Visibility: 3 miles ( 5 km)
Ceiling: 20000 feet AGL
Clouds: few clouds at 1400 feet AGL
broken clouds at 20000 feet AGL
Weather: BR  (mist)

Forecast for: AMD
Text: TAF AMD EIDW 190604Z 1906/2006 08005KT 1500 BR FEW015
Forecast period: 0600 to 0700 UTC 19 April 2019
Forecast type: FROM: standard forecast or significant change
Winds: from the E (80 degrees) at 6 MPH (5 knots; 2.6 m/s)
Visibility: 0.93 miles (1.50 km)
Ceiling: at least 12,000 feet AGL
Clouds: few clouds at 1500 feet AGL
Weather: BR  (mist)
Text: BECMG 1907/1909 3500
Forecast period: 0700 to 0900 UTC 19 April 2019
Forecast type: BECOMING: Conditions expected to become as follows by 0900 UTC 19 April 2019
Winds: from the E (80 degrees) at 6 MPH (5 knots; 2.6 m/s)
Visibility: 2.17 miles (3.49 km)
Ceiling: at least 12,000 feet AGL
Clouds: few clouds at 1500 feet AGL
Weather: BR  (mist)
Text: BECMG 1909/1911 14010KT 7000 NSW
Forecast period: 0900 to 1800 UTC 19 April 2019
Forecast type: BECOMING: Conditions expected to become as follows by 1100 UTC 19 April 2019
Winds: from the SE (140 degrees) at 12 MPH (10 knots; 5.1 m/s)
Visibility: 4 miles (7 km)
Ceiling: at least 12,000 feet AGL
Clouds: few clouds at 1500 feet AGL
Weather: NSW  (no significant weather)
Text: BECMG 1918/1921 17005KT
Forecast period: 1800 to 2100 UTC 19 April 2019
Forecast type: BECOMING: Conditions expected to become as follows by 2100 UTC 19 April 2019
Winds: from the S (170 degrees) at 6 MPH (5 knots; 2.6 m/s)
Visibility: 4 miles (7 km)
Ceiling: at least 12,000 feet AGL
Clouds: few clouds at 1500 feet AGL
Weather: NSW  (no significant weather)
Text: BECMG 1921/1924 VRB03KT
Forecast period: 2100 UTC 19 April 2019 to 0600 UTC 20 April 2019
Forecast type: BECOMING: Conditions expected to become as follows by 0000 UTC 20 April 2019
Winds: variable direction winds at 3 MPH (3 knots; 1.5 m/s)
Visibility: 4 miles (7 km)
Ceiling: at least 12,000 feet AGL
Clouds: few clouds at 1500 feet AGL
Weather: NSW  (no significant weather)